Nancheng, China
Current Conditions -  °F | °C
As of 8:00 PM on Friday 26 Dec 2014 (Local Time) from ZGHA Reporting Station
Haze Haze  
Wind Chill: 39°   Ceiling: Unl
Heat Index: 45°   Visibility: 1.8mi
Dew Point: 36°   Wind: 11mph
Humidity: 71%   Direction: 340°NNW
Pressure: 30.3"   Gusts: NA
Location:  27.58°N, 116.65°E
Report Text: ZGHA 261200Z 34005MPS 3000 BR NSC 07/02 Q1026 NOSIG
Loading
Personal Weather Stations






























Interactive Weather Map New forecast layout! Learn more

10-Day Weather Forecast

Advertisements
Track Severe Weather on mobile